createdAt,value
2023-01-26T05:39:47.038Z,0.00
2023-01-26T05:42:18.684Z,0.10
2023-01-26T05:44:50.294Z,0.00
2023-01-26T05:47:23.505Z,-0.10
2023-01-26T05:49:55.132Z,-0.10
2023-01-26T05:52:26.748Z,-0.10
2023-01-26T05:54:58.371Z,-0.10
2023-01-26T05:57:30.084Z,-0.10
2023-01-26T06:00:01.990Z,-0.10
2023-01-26T06:02:35.116Z,-0.10
2023-01-26T06:05:08.181Z,-0.10
2023-01-26T06:07:39.822Z,-0.10
2023-01-26T06:10:12.028Z,-0.10
2023-01-26T06:12:43.845Z,-0.10
2023-01-26T06:15:15.473Z,-0.10
2023-01-26T06:17:48.448Z,-0.10
2023-01-26T06:20:20.090Z,0.00
2023-01-26T06:22:51.696Z,-0.10
2023-01-26T06:25:23.330Z,-0.10
2023-01-26T06:27:57.246Z,-0.10
2023-01-26T06:30:29.018Z,-0.10
2023-01-26T06:33:02.152Z,-0.10
2023-01-26T06:35:33.986Z,-0.10
2023-01-26T06:38:05.698Z,-0.10
2023-01-26T06:40:37.360Z,-0.10
2023-01-26T06:43:08.974Z,-0.20
2023-01-26T06:45:40.625Z,-0.20
2023-01-26T06:48:13.559Z,-0.30
2023-01-26T06:50:45.204Z,-0.20
2023-01-26T06:53:25.847Z,-0.40
2023-01-26T06:55:57.488Z,-0.30
2023-01-26T06:58:29.118Z,-0.30
2023-01-26T07:01:00.808Z,-0.30
2023-01-26T07:03:33.837Z,-0.30
2023-01-26T07:06:05.867Z,-0.20
2023-01-26T07:08:37.520Z,-0.20
2023-01-26T07:11:09.436Z,-0.20
2023-01-26T07:13:41.041Z,-0.10
2023-01-26T07:16:13.672Z,-0.10
2023-01-26T07:18:46.692Z,-0.10
2023-01-26T07:21:18.875Z,-0.10
2023-01-26T07:23:50.681Z,-0.10
2023-01-26T07:26:22.354Z,-0.10
2023-01-26T07:28:54.046Z,-0.20
2023-01-26T07:31:25.787Z,-0.20
2023-01-26T07:33:58.773Z,-0.20
2023-01-26T07:36:30.444Z,-0.20
2023-01-26T07:39:02.043Z,-0.20
2023-01-26T07:41:33.699Z,-0.20
2023-01-26T07:44:08.877Z,-0.10
2023-01-26T07:46:40.534Z,-0.10
2023-01-26T07:49:13.542Z,-0.10
2023-01-26T07:51:45.171Z,0.00
2023-01-26T07:54:16.827Z,-0.30
2023-01-26T07:56:51.434Z,-0.10
2023-01-26T07:59:23.405Z,-0.10
2023-01-26T08:01:55.178Z,-0.10
2023-01-26T08:04:28.198Z,-0.10
2023-01-26T08:07:00.194Z,-0.10
2023-01-26T08:09:31.923Z,0.00
2023-01-26T08:12:04.033Z,0.00
2023-01-26T08:14:46.534Z,0.10
2023-01-26T08:17:18.897Z,0.10
2023-01-26T08:19:51.877Z,0.20
2023-01-26T08:22:23.562Z,0.20
2023-01-26T08:24:55.216Z,0.20
2023-01-26T08:27:26.839Z,0.30
2023-01-26T08:29:58.472Z,0.30
2023-01-26T08:32:30.238Z,0.40
2023-01-26T08:35:03.283Z,0.40
2023-01-26T08:37:34.969Z,0.40
2023-01-26T08:40:07.975Z,0.40
2023-01-26T08:42:39.604Z,0.40
2023-01-26T08:45:11.497Z,0.40
2023-01-26T08:47:43.143Z,0.40
2023-01-26T08:50:16.280Z,0.40
2023-01-26T08:52:47.935Z,0.40
2023-01-26T08:55:19.563Z,0.50
2023-01-26T08:57:54.059Z,0.50
2023-01-26T09:00:25.833Z,0.50
2023-01-26T09:03:00.769Z,0.50
2023-01-26T09:05:34.777Z,0.50
2023-01-26T09:08:07.618Z,0.40
2023-01-26T09:10:39.255Z,0.50
2023-01-26T09:13:10.865Z,0.50
2023-01-26T09:15:42.498Z,0.60
2023-01-26T09:18:14.112Z,0.60
2023-01-26T09:20:47.159Z,0.60
2023-01-26T09:23:18.832Z,0.60
2023-01-26T09:25:52.917Z,0.70
2023-01-26T09:28:24.549Z,0.70
2023-01-26T09:30:56.333Z,0.80
2023-01-26T09:33:28.044Z,1.50
2023-01-26T09:36:04.420Z,0.90
2023-01-26T09:38:36.410Z,1.00
2023-01-26T09:41:17.746Z,0.90
2023-01-26T09:43:50.723Z,0.70
2023-01-26T09:46:23.542Z,0.70
2023-01-26T09:49:02.235Z,0.80
2023-01-26T09:51:36.357Z,0.80
2023-01-26T09:54:13.820Z,0.90
2023-01-26T09:56:45.505Z,0.90
2023-01-26T09:59:22.592Z,0.90
2023-01-26T10:01:56.128Z,0.70
2023-01-26T10:04:29.970Z,0.70
2023-01-26T10:07:04.465Z,0.60
2023-01-26T10:09:37.146Z,0.60
2023-01-26T10:12:11.861Z,0.60
2023-01-26T10:14:45.036Z,0.60
2023-01-26T10:19:50.817Z,0.60
2023-01-26T10:22:26.348Z,0.80
2023-01-26T10:24:58.271Z,0.80
2023-01-26T10:27:29.910Z,0.90
2023-01-26T10:30:01.584Z,0.90
2023-01-26T10:32:33.509Z,0.90
2023-01-26T10:35:06.021Z,0.90
2023-01-26T10:37:39.062Z,0.90
2023-01-26T10:40:11.169Z,0.90
2023-01-26T10:42:42.809Z,1.00
2023-01-26T10:45:24.587Z,1.10
2023-01-26T10:48:03.685Z,1.10
2023-01-26T10:50:35.675Z,1.10
2023-01-26T10:53:14.870Z,1.20
2023-01-26T10:55:58.904Z,1.30
2023-01-26T10:58:44.036Z,1.30
2023-01-26T11:01:16.405Z,1.40
2023-01-26T11:04:01.292Z,1.40
2023-01-26T11:06:33.091Z,1.50
2023-01-26T11:09:17.949Z,1.60
2023-01-26T11:11:59.965Z,1.50
2023-01-26T11:14:32.153Z,1.50
2023-01-26T11:17:09.970Z,1.50
2023-01-26T11:19:52.777Z,1.40
2023-01-26T11:22:26.983Z,1.30
2023-01-26T11:25:03.850Z,1.20
2023-01-26T11:27:40.120Z,1.20
2023-01-26T11:30:28.975Z,1.20
2023-01-26T11:33:03.139Z,1.20
2023-01-26T11:35:39.578Z,1.30
2023-01-26T11:38:25.528Z,1.40
2023-01-26T11:41:02.635Z,1.40
2023-01-26T11:43:58.531Z,1.40
2023-01-26T11:46:40.856Z,1.40
2023-01-26T11:49:20.200Z,1.50
2023-01-26T11:52:00.253Z,1.50
2023-01-26T11:54:50.627Z,1.50
2023-01-26T11:57:25.418Z,1.50
2023-01-26T11:59:58.410Z,1.40
2023-01-26T12:02:31.591Z,1.40
2023-01-26T12:05:05.890Z,1.40
2023-01-26T12:07:43.017Z,1.30
2023-01-26T12:10:15.567Z,1.30
2023-01-26T12:12:49.547Z,1.30
2023-01-26T12:15:23.980Z,1.20
2023-01-26T12:17:58.949Z,1.20
2023-01-26T12:20:34.536Z,1.10
2023-01-26T12:23:10.534Z,1.00
2023-01-26T12:25:44.815Z,1.00
2023-01-26T12:28:19.877Z,1.00
2023-01-26T12:30:55.616Z,1.00
2023-01-26T12:33:27.285Z,1.00
2023-01-26T12:36:16.244Z,1.00
2023-01-26T12:38:55.467Z,1.10
2023-01-26T12:41:31.318Z,1.20
2023-01-26T12:44:10.468Z,1.20
2023-01-26T12:46:43.817Z,1.20
2023-01-26T12:49:17.161Z,1.20
2023-01-26T12:51:50.693Z,1.30
2023-01-26T12:54:23.728Z,1.30
2023-01-26T12:56:56.395Z,1.30
2023-01-26T12:59:48.030Z,1.30
2023-01-26T13:02:25.706Z,1.30
2023-01-26T13:04:57.694Z,1.30
2023-01-26T13:07:31.608Z,1.30
2023-01-26T13:10:27.897Z,1.40
2023-01-26T13:13:00.108Z,1.40
2023-01-26T13:15:33.209Z,1.40
2023-01-26T13:18:04.915Z,1.40
2023-01-26T13:20:54.536Z,1.40
2023-01-26T13:23:52.411Z,1.40
2023-01-26T13:26:40.088Z,1.40
2023-01-26T13:29:29.114Z,1.50
2023-01-26T13:32:18.086Z,1.50
2023-01-26T13:34:51.940Z,1.50
2023-01-26T13:37:24.706Z,1.50
2023-01-26T13:39:58.810Z,1.50
2023-01-26T13:42:32.886Z,1.60
2023-01-26T13:45:06.252Z,1.50
2023-01-26T13:47:40.931Z,1.50
2023-01-26T13:50:22.622Z,1.50
2023-01-26T13:52:54.241Z,1.50
2023-01-26T13:55:26.365Z,1.50
2023-01-26T13:58:10.685Z,1.50
2023-01-26T14:00:42.379Z,1.50
2023-01-26T14:03:21.331Z,1.40
2023-01-26T14:05:53.849Z,1.40
2023-01-26T14:08:25.510Z,1.50
2023-01-26T14:10:57.233Z,1.50
2023-01-26T14:13:31.161Z,1.50
2023-01-26T14:16:07.570Z,1.40
2023-01-26T14:18:40.572Z,1.50
2023-01-26T14:21:16.531Z,1.50
2023-01-26T14:23:54.386Z,1.40
2023-01-26T14:26:30.046Z,1.50
2023-01-26T14:29:01.654Z,1.50
2023-01-26T14:31:33.396Z,1.40
2023-01-26T14:34:08.960Z,1.50
2023-01-26T14:36:40.603Z,1.60
2023-01-26T14:39:16.260Z,1.60
2023-01-26T14:41:47.940Z,1.60
2023-01-26T14:44:19.557Z,1.60
2023-01-26T14:46:54.169Z,1.60
2023-01-26T14:49:31.439Z,1.60
2023-01-26T14:52:03.237Z,1.60
2023-01-26T14:54:34.888Z,1.60
2023-01-26T14:57:08.666Z,1.50
2023-01-26T14:59:41.081Z,1.60
2023-01-26T15:02:16.720Z,1.60
2023-01-26T15:04:52.056Z,1.60
2023-01-26T15:07:32.268Z,1.60
2023-01-26T15:10:21.872Z,1.60
2023-01-26T15:12:58.592Z,1.70
2023-01-26T15:15:31.253Z,1.60
2023-01-26T15:18:16.637Z,1.70
2023-01-26T15:20:55.783Z,1.70
2023-01-26T15:23:28.553Z,1.70
2023-01-26T15:26:07.114Z,1.70
2023-01-26T15:28:38.798Z,1.70
2023-01-26T15:31:18.699Z,1.70
2023-01-26T15:33:50.980Z,1.70
2023-01-26T15:36:28.765Z,1.80
2023-01-26T15:39:02.399Z,1.80
2023-01-26T15:41:34.038Z,1.70
2023-01-26T15:44:05.707Z,1.80
2023-01-26T15:46:37.370Z,1.70
2023-01-26T15:49:09.031Z,1.80
2023-01-26T15:51:41.979Z,1.70
2023-01-26T15:54:13.623Z,1.70
2023-01-26T15:56:45.277Z,1.80
2023-01-26T15:59:16.927Z,1.90
2023-01-26T16:01:48.618Z,1.90
2023-01-26T16:04:20.256Z,1.80
2023-01-26T16:06:53.225Z,1.90
2023-01-26T16:09:24.838Z,1.90
2023-01-26T16:11:56.464Z,1.80
2023-01-26T16:14:28.066Z,1.90
2023-01-26T16:16:59.691Z,1.90
2023-01-26T16:19:35.535Z,1.90
2023-01-26T16:22:10.316Z,1.90
2023-01-26T16:24:41.933Z,2.00
2023-01-26T16:27:13.575Z,1.90
2023-01-26T16:29:45.300Z,1.90
2023-01-26T16:32:22.151Z,2.00
2023-01-26T16:34:53.769Z,2.00
2023-01-26T16:37:26.765Z,2.10
2023-01-26T16:39:58.392Z,2.10
2023-01-26T16:42:30.027Z,2.10
2023-01-26T16:45:01.644Z,2.10
2023-01-26T16:47:33.338Z,2.10
2023-01-26T16:50:05.350Z,2.10
2023-01-26T16:52:39.738Z,2.10
2023-01-26T16:55:12.123Z,2.10
2023-01-26T16:57:44.934Z,2.20
2023-01-26T17:00:17.706Z,2.20
2023-01-26T17:02:51.435Z,2.20
2023-01-26T17:15:38.501Z,2.10
2023-01-26T17:18:10.714Z,2.40
2023-01-26T17:20:42.377Z,2.20
2023-01-26T17:23:15.349Z,2.30
2023-01-26T17:25:47.003Z,2.40
2023-01-26T17:28:18.624Z,2.40
2023-01-26T17:30:50.302Z,2.40
2023-01-26T17:33:21.944Z,2.40
2023-01-26T17:35:59.716Z,2.50
2023-01-26T17:38:32.750Z,2.40
2023-01-26T17:41:04.657Z,2.40
2023-01-26T17:43:36.318Z,2.50
2023-01-26T17:46:09.680Z,2.50
2023-01-26T17:48:42.988Z,2.60
2023-01-26T17:51:17.003Z,2.60
2023-01-26T17:53:50.020Z,2.50
2023-01-26T17:56:21.868Z,2.60
2023-01-26T17:58:54.216Z,2.60
2023-01-26T18:01:25.906Z,2.60
2023-01-26T18:03:57.603Z,2.70
2023-01-26T18:06:29.299Z,2.70
2023-01-26T18:09:02.244Z,2.70
2023-01-26T18:11:33.896Z,2.70
2023-01-26T18:14:05.542Z,2.70
2023-01-26T18:16:37.205Z,2.70
2023-01-26T18:19:08.881Z,2.70
2023-01-26T18:21:40.568Z,2.70
2023-01-26T18:24:13.541Z,2.80
2023-01-26T18:26:45.305Z,2.80
2023-01-26T18:29:16.938Z,2.80
2023-01-26T18:31:48.643Z,2.80
2023-01-26T18:34:20.264Z,2.90
2023-01-26T18:36:51.900Z,2.90
2023-01-26T18:39:24.868Z,2.90
2023-01-26T18:41:56.645Z,2.90
2023-01-26T18:44:28.247Z,3.00
2023-01-26T18:46:59.900Z,3.00
2023-01-26T18:49:31.526Z,3.00
2023-01-26T18:52:03.160Z,3.00
2023-01-26T18:54:36.141Z,3.00
2023-01-26T18:57:07.797Z,3.00
2023-01-26T18:59:39.437Z,3.00
2023-01-26T19:02:11.222Z,3.10
2023-01-26T19:04:42.838Z,3.10
2023-01-26T19:07:14.497Z,3.10
2023-01-26T19:09:47.528Z,3.10
2023-01-26T19:12:19.146Z,3.10
2023-01-26T19:17:22.847Z,3.10
2023-01-26T19:19:54.470Z,3.10
2023-01-26T19:22:26.106Z,3.10
2023-01-26T19:24:59.083Z,3.20
2023-01-26T19:30:02.766Z,3.10
2023-01-26T19:32:34.443Z,3.20
2023-01-26T19:35:06.818Z,3.30
2023-01-26T19:37:38.467Z,3.30
2023-01-26T19:40:13.316Z,3.30
2023-01-26T19:42:44.957Z,3.30
2023-01-26T19:45:16.620Z,3.30
2023-01-26T19:47:48.254Z,3.30
2023-01-26T19:50:19.846Z,3.30
2023-01-26T19:52:51.493Z,3.40
2023-01-26T19:55:24.455Z,3.30
2023-01-26T19:57:56.147Z,3.40
2023-01-26T20:00:27.743Z,3.30
2023-01-26T20:02:59.424Z,3.40
2023-01-26T20:05:31.079Z,3.40
2023-01-26T20:08:02.744Z,3.30
2023-01-26T20:10:37.854Z,3.40
2023-01-26T20:13:09.461Z,3.40
2023-01-26T20:15:41.098Z,3.40
2023-01-26T20:18:12.728Z,3.40
2023-01-26T20:20:49.049Z,3.50
2023-01-26T20:23:20.940Z,3.40
2023-01-26T20:26:02.469Z,3.40
2023-01-26T20:28:34.133Z,3.50
2023-01-26T20:31:07.068Z,3.50
2023-01-26T20:33:38.959Z,3.50
2023-01-26T20:36:11.763Z,3.50
2023-01-26T20:38:43.393Z,3.50
2023-01-26T20:41:17.165Z,3.50
2023-01-26T20:43:59.352Z,3.50
2023-01-26T20:46:33.677Z,3.50
2023-01-26T20:49:05.665Z,3.50
2023-01-26T20:51:37.514Z,3.50
2023-01-26T21:01:51.555Z,3.70
2023-01-26T21:06:56.306Z,3.60
2023-01-26T21:27:23.310Z,3.60
2023-01-26T21:29:54.949Z,3.60
2023-01-26T21:34:59.329Z,3.60
2023-01-26T21:37:30.948Z,3.60
2023-01-26T21:40:02.643Z,3.70
2023-01-26T21:42:35.642Z,3.70
2023-01-26T21:45:08.462Z,3.60
2023-01-26T21:47:40.090Z,3.60
2023-01-26T21:50:12.082Z,3.60
2023-01-26T21:52:43.859Z,3.60
2023-01-26T22:18:09.188Z,3.60
2023-01-26T22:46:21.027Z,3.50
2023-01-26T22:48:52.653Z,3.50
2023-01-26T22:51:24.985Z,3.60
2023-01-26T22:53:56.984Z,3.50
2023-01-26T22:56:28.620Z,3.50
